Time;durP1;ratioP1;P1;durP2;ratioP2;P2;SDS_P1;SDS_P2;PMS_P1;PMS_P2;Temp;Humidity;BMP_temperature;BMP_pressure;BME280_temperature;BME280_humidity;BME280_pressure;Samples;Min_cycle;Max_cycle;Signal;HPM_P1;HPM_P2
2022/08/17 04:01:18;;;;;;;8.83;7.93;;;19.00;99.90;;;;;;5664906;23;20495;-75
2022/08/17 04:03:45;;;;;;;8.37;7.60;;;18.90;99.90;;;;;;5012209;28;20451;-75
2022/08/17 04:06:11;;;;;;;11.03;8.00;;;18.90;99.90;;;;;;5011787;28;20549;-75
2022/08/17 04:08:38;;;;;;;13.17;8.27;;;19.00;99.90;;;;;;5012087;28;20459;-75
2022/08/17 04:11:05;;;;;;;8.70;7.90;;;18.90;99.90;;;;;;5012214;28;20484;-75
2022/08/17 04:13:32;;;;;;;7.93;7.20;;;19.00;99.90;;;;;;5012519;28;20521;-76
2022/08/17 04:15:59;;;;;;;10.10;8.13;;;18.90;99.90;;;;;;5011745;28;20454;-76
2022/08/17 04:18:27;;;;;;;10.20;9.20;;;18.90;99.90;;;;;;5012126;28;20454;-76
2022/08/17 04:20:54;;;;;;;9.43;8.27;;;18.80;99.90;;;;;;5017206;28;20481;-76
2022/08/17 04:23:21;;;;;;;9.00;7.87;;;18.80;99.90;;;;;;5018400;28;20458;-76
2022/08/17 04:25:50;;;;;;;9.90;8.77;;;18.80;99.90;;;;;;5018286;28;20458;-76
2022/08/17 04:28:18;;;;;;;10.33;9.23;;;18.80;99.90;;;;;;5018585;28;20455;-76
2022/08/17 04:30:46;;;;;;;9.63;8.67;;;18.70;99.90;;;;;;5018537;28;20558;-76
2022/08/17 04:33:16;;;;;;;10.33;8.00;;;18.70;99.90;;;;;;5018543;28;20469;-76
2022/08/17 04:35:47;;;;;;;10.50;9.10;;;18.60;99.90;;;;;;5018206;28;20459;-76
2022/08/17 04:38:15;;;;;;;9.27;8.20;;;18.60;99.90;;;;;;5018618;28;20439;-76
2022/08/17 04:43:28;;;;;;;8.23;7.47;;;18.60;99.90;;;;;;5018363;28;20430;-76
2022/08/17 04:45:57;;;;;;;9.10;8.20;;;18.60;99.90;;;;;;5018206;28;20465;-76
2022/08/17 04:48:26;;;;;;;10.10;9.10;;;18.60;99.90;;;;;;5018362;28;20480;-76
2022/08/17 04:50:55;;;;;;;9.60;8.70;;;18.60;99.90;;;;;;5017771;28;20482;-76
2022/08/17 04:53:22;;;;;;;9.80;8.77;;;18.60;99.90;;;;;;5017951;28;20994;-76
2022/08/17 04:55:51;;;;;;;12.27;9.97;;;18.60;99.90;;;;;;5018003;28;20462;-76
2022/08/17 04:58:18;;;;;;;17.00;9.80;;;18.50;99.90;;;;;;5018086;28;20455;-76
2022/08/17 05:00:45;;;;;;;10.23;9.17;;;18.50;99.90;;;;;;5017992;28;20486;-76
2022/08/17 05:03:12;;;;;;;10.23;9.10;;;18.50;99.90;;;;;;5017787;28;20942;-77
2022/08/17 05:05:48;;;;;;;9.83;8.80;;;18.40;99.90;;;;;;5017683;28;20455;-77
2022/08/17 05:08:18;;;;;;;16.63;9.17;;;18.30;99.90;;;;;;5018194;28;20557;-77
2022/08/17 05:10:45;;;;;;;9.67;8.77;;;18.30;99.90;;;;;;5018072;28;20469;-76
2022/08/17 05:13:14;;;;;;;9.80;8.87;;;18.30;99.90;;;;;;5017956;28;20542;-77
2022/08/17 05:15:43;;;;;;;11.23;10.10;;;18.30;99.90;;;;;;5017723;28;20515;-77
2022/08/17 05:18:09;;;;;;;11.90;9.77;;;18.30;99.90;;;;;;5018049;28;20455;-77
2022/08/17 05:20:38;;;;;;;10.03;9.03;;;18.30;99.90;;;;;;5018288;28;20479;-77
2022/08/17 05:23:07;;;;;;;10.20;9.00;;;18.30;99.90;;;;;;5017973;28;20982;-77
2022/08/17 05:25:37;;;;;;;11.40;9.50;;;18.40;99.90;;;;;;5017986;28;20457;-79
2022/08/17 05:28:05;;;;;;;10.23;9.10;;;18.40;99.90;;;;;;5019094;28;20473;-78
2022/08/17 05:30:34;;;;;;;11.10;9.30;;;18.40;99.90;;;;;;5021187;28;20493;-78
2022/08/17 05:33:03;;;;;;;9.50;8.50;;;18.50;99.90;;;;;;5018253;28;20459;-78
2022/08/17 05:35:32;;;;;;;9.93;8.93;;;18.50;99.90;;;;;;5018371;28;21093;-78
2022/08/17 05:37:59;;;;;;;13.60;9.50;;;18.50;99.90;;;;;;5018165;28;20465;-78
2022/08/17 05:40:27;;;;;;;11.07;9.97;;;18.50;99.90;;;;;;5018099;28;20462;-78
2022/08/17 05:43:06;;;;;;;11.40;9.73;;;18.50;99.90;;;;;;5017682;28;20831;-78
2022/08/17 05:45:33;;;;;;;11.33;10.17;;;18.50;99.90;;;;;;5018016;28;20463;-78
2022/08/17 05:48:00;;;;;;;10.63;9.00;;;18.60;99.90;;;;;;5018180;28;20517;-78
2022/08/17 05:50:31;;;;;;;10.53;9.47;;;18.60;99.90;;;;;;5017246;28;20973;-78
2022/08/17 05:53:05;;;;;;;9.90;9.00;;;18.60;99.90;;;;;;5017858;28;20461;-78
2022/08/17 05:55:40;;;;;;;11.47;9.60;;;18.50;99.90;;;;;;5016970;28;20500;-78
2022/08/17 05:58:19;;;;;;;11.83;10.07;;;18.60;99.90;;;;;;5018153;28;20427;-78
2022/08/17 06:00:54;;;;;;;11.53;10.03;;;18.60;99.90;;;;;;5017434;28;20497;-78
2022/08/17 06:03:39;;;;;;;11.00;9.00;;;18.60;99.90;;;;;;5017753;28;20468;-78
2022/08/17 06:06:17;;;;;;;10.33;9.27;;;18.60;99.90;;;;;;5017776;28;20449;-78
2022/08/17 06:08:50;;;;;;;9.67;8.77;;;18.70;99.90;;;;;;5017593;28;20439;-78
2022/08/17 06:11:25;;;;;;;11.40;9.80;;;18.70;99.90;;;;;;5017467;28;20488;-78
2022/08/17 06:14:18;;;;;;;10.73;9.33;;;18.80;99.90;;;;;;5017504;28;20475;-78
2022/08/17 06:16:48;;;;;;;10.00;9.00;;;18.80;99.90;;;;;;5016653;28;20459;-78
2022/08/17 06:19:19;;;;;;;11.60;9.37;;;18.90;99.90;;;;;;5017243;28;20462;-78
2022/08/17 06:21:49;;;;;;;9.37;8.40;;;19.00;99.90;;;;;;5017756;28;20566;-78
2022/08/17 06:24:27;;;;;;;10.83;9.43;;;19.00;99.90;;;;;;5017441;28;20451;-78
2022/08/17 06:26:57;;;;;;;13.90;9.90;;;19.10;99.90;;;;;;5018989;28;20449;-79
2022/08/17 06:29:35;;;;;;;10.40;9.30;;;19.10;99.90;;;;;;5018584;28;20469;-79
2022/08/17 06:32:03;;;;;;;10.40;8.70;;;19.20;99.90;;;;;;5018225;28;20565;-78
2022/08/17 06:34:32;;;;;;;12.73;9.20;;;19.30;99.90;;;;;;5018544;28;20501;-79
2022/08/17 06:37:11;;;;;;;10.20;9.13;;;19.30;99.90;;;;;;5018370;28;20463;-79
2022/08/17 06:39:48;;;;;;;9.80;8.80;;;19.30;99.90;;;;;;5018208;28;20818;-79
2022/08/17 06:42:25;;;;;;;9.87;8.87;;;19.40;99.90;;;;;;5018531;28;20482;-79
2022/08/17 06:45:02;;;;;;;9.77;8.80;;;19.50;99.90;;;;;;5018055;28;20463;-79
2022/08/17 06:47:35;;;;;;;9.30;8.30;;;19.60;99.90;;;;;;5018123;28;20550;-79
2022/08/17 06:50:13;;;;;;;8.50;7.60;;;19.60;99.90;;;;;;5018229;28;20509;-79
2022/08/17 06:52:48;;;;;;;10.57;7.30;;;19.70;99.90;;;;;;5018715;28;20512;-79
2022/08/17 06:55:20;;;;;;;13.77;8.40;;;19.80;99.90;;;;;;5017828;28;20875;-79
2022/08/17 06:57:51;;;;;;;15.43;9.77;;;19.90;99.90;;;;;;5019355;28;20454;-79
2022/08/17 07:00:22;;;;;;;11.90;9.70;;;20.00;99.90;;;;;;5018288;28;20494;-79
2022/08/17 07:02:55;;;;;;;14.53;8.80;;;20.10;99.90;;;;;;5018990;28;20525;-80
2022/08/17 07:05:25;;;;;;;12.90;8.90;;;20.20;99.90;;;;;;5018087;28;20462;-79
2022/08/17 07:08:03;;;;;;;9.57;8.23;;;20.20;99.90;;;;;;5018355;28;20459;-79
2022/08/17 07:10:36;;;;;;;9.00;8.10;;;20.30;99.90;;;;;;5017806;28;20451;-79
2022/08/17 07:13:18;;;;;;;335.63;214.97;;;20.30;99.90;;;;;;5018393;28;20892;-79
2022/08/17 07:15:49;;;;;;;37.10;26.23;;;20.40;99.90;;;;;;5018583;28;20585;-79
2022/08/17 07:18:16;;;;;;;16.27;8.73;;;20.40;99.90;;;;;;5018339;28;20823;-79
2022/08/17 07:20:48;;;;;;;8.50;6.70;;;20.50;99.90;;;;;;5017345;28;20856;-79
2022/08/17 07:23:23;;;;;;;8.00;7.10;;;20.60;99.90;;;;;;5017803;28;20825;-79
2022/08/17 07:25:50;;;;;;;8.80;6.33;;;20.70;99.90;;;;;;5017608;28;21017;-79
2022/08/17 07:28:22;;;;;;;8.07;6.67;;;20.70;99.90;;;;;;5017695;28;21026;-79
2022/08/17 07:30:53;;;;;;;9.43;6.73;;;20.90;99.90;;;;;;5017917;28;20479;-79
2022/08/17 07:33:22;;;;;;;8.20;6.83;;;21.00;99.90;;;;;;5017651;28;20510;-79
2022/08/17 07:35:50;;;;;;;8.27;6.13;;;21.10;99.90;;;;;;5018313;28;20501;-79
2022/08/17 07:38:20;;;;;;;8.67;5.90;;;21.20;99.90;;;;;;5017949;28;20463;-79
2022/08/17 07:41:00;;;;;;;15.97;14.13;;;21.20;99.90;;;;;;5018370;28;20483;-79
2022/08/17 07:43:29;;;;;;;10.53;7.17;;;21.40;99.90;;;;;;5018519;28;20463;-79
2022/08/17 07:49:15;;;;;;;6.93;5.17;;;21.60;99.90;;;;;;5017997;28;20450;-80
2022/08/17 07:51:55;;;;;;;8.33;5.77;;;21.80;99.90;;;;;;5017811;28;20478;-80
2022/08/17 07:54:27;;;;;;;13.33;5.87;;;22.00;99.90;;;;;;5017099;28;21060;-80
2022/08/17 07:56:58;;;;;;;8.53;5.60;;;22.00;99.90;;;;;;5018417;28;20497;-80
2022/08/17 07:59:31;;;;;;;7.47;6.13;;;22.10;99.90;;;;;;5017927;28;20497;-79
2022/08/17 08:02:26;;;;;;;7.40;5.13;;;22.10;99.90;;;;;;5017946;28;20486;-79
2022/08/17 08:05:03;;;;;;;7.77;5.50;;;22.20;99.90;;;;;;5016463;28;20459;-77
2022/08/17 08:07:33;;;;;;;9.63;6.43;;;22.30;99.90;;;;;;5016009;28;20933;-77
2022/08/17 08:10:04;;;;;;;5.93;5.33;;;22.40;99.90;;;;;;5016363;28;20516;-80
2022/08/17 08:12:35;;;;;;;6.60;6.00;;;22.60;99.90;;;;;;5015895;28;20514;-78
2022/08/17 08:15:09;;;;;;;6.70;5.53;;;22.70;99.90;;;;;;5017539;28;20589;-78
2022/08/17 08:17:48;;;;;;;5.73;5.23;;;22.90;99.90;;;;;;5018023;28;20550;-78
2022/08/17 08:20:16;;;;;;;10.30;5.73;;;23.10;99.90;;;;;;5017954;28;20462;-78
2022/08/17 08:22:56;;;;;;;12.23;5.40;;;23.30;99.90;;;;;;5018282;28;20522;-79
2022/08/17 08:25:42;;;;;;;11.30;6.23;;;23.50;99.90;;;;;;5017921;28;20461;-79
2022/08/17 08:28:21;;;;;;;7.17;5.80;;;23.60;99.90;;;;;;5018007;28;20923;-79
2022/08/17 08:30:51;;;;;;;9.20;5.53;;;23.80;99.90;;;;;;5018179;28;20650;-79
2022/08/17 08:33:39;;;;;;;6.13;5.30;;;24.00;99.90;;;;;;5018089;28;20486;-79
2022/08/17 08:36:16;;;;;;;6.77;5.00;;;24.10;99.90;;;;;;5017999;28;21021;-79
2022/08/17 08:38:52;;;;;;;5.07;4.57;;;24.30;99.90;;;;;;5018027;28;20931;-79
2022/08/17 08:41:38;;;;;;;6.17;5.57;;;24.30;99.90;;;;;;5017835;28;20955;-80
2022/08/17 08:44:19;;;;;;;6.53;5.67;;;24.40;99.90;;;;;;5017851;28;20457;-79
2022/08/17 08:46:54;;;;;;;13.10;5.90;;;24.50;99.90;;;;;;5018401;28;20458;-79
2022/08/17 08:49:50;;;;;;;9.63;5.60;;;24.50;99.90;;;;;;5018341;28;20541;-80
2022/08/17 08:52:31;;;;;;;11.53;6.17;;;24.60;99.90;;;;;;5017374;28;20475;-79
2022/08/17 08:55:04;;;;;;;11.17;6.20;;;24.70;99.90;;;;;;5017042;28;20537;-79
2022/08/17 08:57:35;;;;;;;9.70;5.80;;;24.70;99.90;;;;;;5017430;28;20463;-80
2022/08/17 09:00:11;;;;;;;11.23;5.87;;;24.80;99.90;;;;;;5015158;28;20461;-77
2022/08/17 09:03:15;;;;;;;12.53;5.53;;;24.80;99.90;;;;;;5015889;28;20509;-78
2022/08/17 09:06:07;;;;;;;9.73;5.20;;;24.80;99.90;;;;;;5017001;28;20983;-78
2022/08/17 09:08:51;;;;;;;5.13;4.60;;;24.80;99.90;;;;;;5021570;28;20438;-79
2022/08/17 09:11:24;;;;;;;7.00;5.30;;;24.90;99.90;;;;;;5020330;28;20478;-79
2022/08/17 09:14:00;;;;;;;6.10;5.30;;;24.90;99.90;;;;;;5020844;28;20463;-79
2022/08/17 09:16:33;;;;;;;5.77;5.10;;;24.90;99.90;;;;;;5020815;28;20490;-79
2022/08/17 09:19:09;;;;;;;7.73;4.60;;;24.90;99.90;;;;;;5020803;28;20553;-79
2022/08/17 09:21:43;;;;;;;7.17;5.17;;;25.00;99.90;;;;;;5020752;28;20501;-79
2022/08/17 09:24:19;;;;;;;6.90;5.20;;;25.00;99.90;;;;;;5020579;28;20469;-79
2022/08/17 09:26:49;;;;;;;9.60;5.03;;;25.00;99.90;;;;;;5020714;28;20454;-79
2022/08/17 09:29:23;;;;;;;5.57;4.80;;;25.00;99.90;;;;;;5021012;28;20470;-79
2022/08/17 09:31:54;;;;;;;7.60;4.90;;;25.00;99.90;;;;;;5020470;28;20474;-79
2022/08/17 09:34:28;;;;;;;8.07;4.90;;;25.00;99.90;;;;;;5019992;28;20919;-79
2022/08/17 09:37:06;;;;;;;5.70;4.33;;;25.00;99.90;;;;;;5020607;28;20916;-79
2022/08/17 09:39:38;;;;;;;8.73;4.97;;;25.10;99.90;;;;;;5020796;28;20518;-78
2022/08/17 09:42:10;;;;;;;5.37;4.07;;;25.00;99.90;;;;;;5020446;28;20466;-79
2022/08/17 09:44:41;;;;;;;8.70;4.67;;;25.10;99.90;;;;;;5021190;28;20441;-79
2022/08/17 09:47:14;;;;;;;8.10;4.73;;;25.10;99.90;;;;;;5020695;28;20462;-79
2022/08/17 09:49:46;;;;;;;6.93;4.73;;;25.10;99.90;;;;;;5020541;28;20439;-79
2022/08/17 09:52:19;;;;;;;10.27;4.60;;;25.10;99.90;;;;;;5020090;28;20476;-79
2022/08/17 09:54:47;;;;;;;6.40;4.80;;;25.10;99.90;;;;;;5019570;28;20459;-79
2022/08/17 09:57:25;;;;;;;8.57;5.53;;;25.10;99.90;;;;;;5020472;28;20455;-80
2022/08/17 10:00:14;;;;;;;7.93;5.27;;;25.10;99.90;;;;;;5020405;28;20873;-79
2022/08/17 10:03:27;;;;;;;10.83;5.57;;;25.20;99.90;;;;;;5020032;28;20513;-79
2022/08/17 10:06:03;;;;;;;13.73;5.20;;;25.20;99.90;;;;;;4995365;28;20454;-79
2022/08/17 10:08:39;;;;;;;12.67;5.30;;;25.30;99.90;;;;;;5020274;28;20439;-79
2022/08/17 10:11:18;;;;;;;6.57;4.83;;;25.30;99.90;;;;;;5019932;28;20473;-79
2022/08/17 10:13:54;;;;;;;13.77;5.80;;;25.30;99.90;;;;;;5043005;23;20477;-75
2022/08/17 10:16:29;;;;;;;9.87;5.50;;;25.30;99.90;;;;;;5014360;28;20495;-75
2022/08/17 10:19:13;;;;;;;8.73;5.57;;;25.30;99.90;;;;;;5013385;28;20443;-75
2022/08/17 10:27:20;;;;;;;6.33;4.77;;;25.30;99.90;;;;;;5013929;28;20805;-75
2022/08/17 10:29:51;;;;;;;5.07;4.20;;;25.30;99.90;;;;;;5013822;28;20459;-75
2022/08/17 10:32:27;;;;;;;9.10;4.83;;;25.40;99.90;;;;;;5013888;28;20442;-75
2022/08/17 10:35:05;;;;;;;6.83;5.23;;;25.40;99.90;;;;;;5013226;28;21005;-75
2022/08/17 10:37:53;;;;;;;5.30;4.40;;;25.30;99.90;;;;;;5013795;28;20512;-75
2022/08/17 10:40:32;;;;;;;6.30;4.70;;;25.40;99.90;;;;;;5013933;28;20445;-75
2022/08/17 10:43:02;;;;;;;4.17;3.77;;;25.40;99.90;;;;;;5013176;28;20458;-75
2022/08/17 10:45:34;;;;;;;4.27;3.73;;;25.50;99.90;;;;;;5013290;28;20474;-75
2022/08/17 10:48:20;;;;;;;5.60;4.27;;;25.50;99.90;;;;;;5013504;28;20458;-75
2022/08/17 10:50:59;;;;;;;5.60;3.90;;;25.50;99.90;;;;;;5013315;28;20930;-75
2022/08/17 10:54:05;;;;;;;5.90;4.73;;;25.50;99.90;;;;;;5013077;28;20454;-75
2022/08/17 10:56:49;;;;;;;5.80;4.20;;;25.50;99.90;;;;;;5013285;28;20982;-75
2022/08/17 10:59:49;;;;;;;5.57;4.03;;;25.50;99.90;;;;;;5013517;28;20806;-75
2022/08/17 11:02:24;;;;;;;11.43;4.30;;;25.50;99.90;;;;;;5013289;28;20455;-75
2022/08/17 11:05:17;;;;;;;5.63;4.30;;;25.50;99.90;;;;;;5014272;28;20486;-75
2022/08/17 11:08:05;;;;;;;4.90;4.50;;;25.40;99.90;;;;;;5015257;28;20454;-75
2022/08/17 11:10:58;;;;;;;9.13;5.90;;;25.40;99.90;;;;;;5015155;28;20466;-75
2022/08/17 11:13:37;;;;;;;9.70;4.80;;;25.40;99.90;;;;;;5015082;28;20816;-75
2022/08/17 11:16:20;;;;;;;8.57;4.20;;;25.40;99.90;;;;;;5012433;28;20490;-75
2022/08/17 11:19:16;;;;;;;5.20;4.00;;;25.40;99.90;;;;;;5013064;28;20494;-75
2022/08/17 11:22:01;;;;;;;6.03;4.57;;;25.40;99.90;;;;;;5013213;28;20817;-75
2022/08/17 11:24:33;;;;;;;8.43;5.00;;;25.40;99.90;;;;;;5012327;28;20478;-75
2022/08/17 11:27:09;;;;;;;4.53;4.13;;;25.40;99.90;;;;;;5012664;28;20656;-75
2022/08/17 11:29:49;;;;;;;7.00;4.03;;;25.40;99.90;;;;;;5012497;28;20512;-75
2022/08/17 11:32:39;;;;;;;8.47;4.50;;;25.40;99.90;;;;;;5012702;28;20471;-75
2022/08/17 11:35:37;;;;;;;10.43;4.70;;;25.30;99.90;;;;;;5011978;28;20565;-75
2022/08/17 11:38:19;;;;;;;9.30;4.50;;;25.30;99.90;;;;;;5012558;28;20904;-75
2022/08/17 11:41:12;;;;;;;7.17;4.90;;;25.40;99.90;;;;;;5012882;28;20530;-75
2022/08/17 11:43:59;;;;;;;5.43;4.50;;;25.30;99.90;;;;;;5012639;28;20816;-75
2022/08/17 11:52:38;;;;;;;5.40;4.67;;;25.30;99.90;;;;;;5012416;28;20905;-75
2022/08/17 11:55:08;;;;;;;5.40;4.47;;;25.20;99.90;;;;;;5011939;28;20638;-75
2022/08/17 11:58:05;;;;;;;6.73;5.40;;;25.20;99.90;;;;;;5012294;28;20927;-75
2022/08/17 12:00:57;;;;;;;5.70;5.00;;;25.20;99.90;;;;;;5012611;28;20442;-75
2022/08/17 12:03:43;;;;;;;5.60;4.93;;;25.10;99.90;;;;;;5012388;28;20450;-75
2022/08/17 12:06:28;;;;;;;5.33;4.73;;;25.10;99.90;;;;;;5012071;28;20442;-75
2022/08/17 12:09:00;;;;;;;8.23;5.30;;;25.00;99.90;;;;;;5013228;28;20439;-75
2022/08/17 12:11:33;;;;;;;7.20;4.40;;;25.00;99.90;;;;;;5012907;28;20907;-75
2022/08/17 12:14:01;;;;;;;7.30;4.47;;;25.00;99.90;;;;;;5012957;28;20687;-75
2022/08/17 12:16:28;;;;;;;7.00;4.10;;;25.00;99.90;;;;;;5012906;28;20554;-75
2022/08/17 12:18:57;;;;;;;6.50;4.70;;;25.10;99.90;;;;;;5012121;28;20459;-74
2022/08/17 12:21:34;;;;;;;5.57;4.00;;;25.10;99.90;;;;;;5011927;28;20935;-74
2022/08/17 12:24:09;;;;;;;5.07;4.40;;;25.20;99.90;;;;;;5012149;28;20478;-74
2022/08/17 12:26:37;;;;;;;5.83;4.03;;;25.20;99.90;;;;;;5011904;28;20984;-74
2022/08/17 12:29:06;;;;;;;6.37;4.97;;;25.30;99.90;;;;;;5012193;28;20462;-74
2022/08/17 12:31:35;;;;;;;7.23;4.67;;;25.30;99.90;;;;;;5012508;28;20477;-74
2022/08/17 12:34:04;;;;;;;4.23;3.90;;;25.40;99.90;;;;;;5011883;28;20496;-74
2022/08/17 12:36:32;;;;;;;5.73;4.30;;;25.40;99.90;;;;;;5011989;28;20487;-74
2022/08/17 12:39:04;;;;;;;4.93;3.90;;;25.50;99.90;;;;;;5011718;28;20840;-74
2022/08/17 12:41:34;;;;;;;6.77;4.37;;;25.50;99.90;;;;;;5013978;28;20441;-74
2022/08/17 12:44:04;;;;;;;6.30;4.30;;;25.50;99.90;;;;;;5015488;28;20557;-74
2022/08/17 12:46:34;;;;;;;5.83;4.60;;;25.60;99.90;;;;;;5015567;28;20489;-74
2022/08/17 12:49:26;;;;;;;5.50;4.77;;;25.60;99.90;;;;;;5015763;28;20454;-74
2022/08/17 12:52:01;;;;;;;4.37;3.97;;;25.70;99.90;;;;;;5015838;28;20966;-74
2022/08/17 12:54:36;;;;;;;8.03;4.50;;;25.70;99.90;;;;;;5015304;28;21047;-74
2022/08/17 12:57:10;;;;;;;4.53;4.00;;;25.80;99.90;;;;;;5015594;28;20486;-74
2022/08/17 12:59:42;;;;;;;4.90;3.97;;;25.80;99.90;;;;;;5015645;28;20454;-74
2022/08/17 13:02:26;;;;;;;7.73;4.27;;;25.80;99.90;;;;;;5015368;28;20489;-74
2022/08/17 13:04:56;;;;;;;6.23;4.87;;;25.90;99.90;;;;;;5015374;28;20576;-74
2022/08/17 13:07:28;;;;;;;4.87;4.20;;;26.00;99.90;;;;;;5015213;28;20504;-74
2022/08/17 13:09:55;;;;;;;5.30;4.20;;;26.00;99.90;;;;;;5015328;28;20461;-74
2022/08/17 13:12:30;;;;;;;4.50;4.10;;;26.10;99.90;;;;;;5015290;28;20463;-74
2022/08/17 13:14:57;;;;;;;6.53;4.50;;;26.10;99.90;;;;;;5014799;28;20490;-74
2022/08/17 13:17:30;;;;;;;4.10;3.63;;;26.20;99.90;;;;;;5015074;28;20490;-74
2022/08/17 13:19:58;;;;;;;5.47;4.50;;;26.20;99.90;;;;;;5015388;28;20460;-74
2022/08/17 13:22:28;;;;;;;4.90;4.40;;;26.30;99.90;;;;;;5015177;28;20458;-74
2022/08/17 13:24:57;;;;;;;4.40;4.00;;;26.30;99.90;;;;;;5015324;28;20478;-74
2022/08/17 13:27:27;;;;;;;5.70;4.10;;;26.40;99.90;;;;;;5015775;28;20455;-73
2022/08/17 13:29:58;;;;;;;4.90;4.10;;;26.40;99.90;;;;;;5014885;28;20550;-74
2022/08/17 13:32:34;;;;;;;5.47;4.00;;;26.50;99.90;;;;;;5014958;28;20516;-74
2022/08/17 13:35:43;;;;;;;4.47;4.07;;;26.50;99.90;;;;;;5014680;28;20497;-74
2022/08/17 13:38:14;;;;;;;3.87;3.43;;;26.70;99.90;;;;;;5008396;28;20471;-74
2022/08/17 13:40:58;;;;;;;4.60;3.67;;;26.80;99.90;;;;;;5014945;28;20466;-74
2022/08/17 13:43:43;;;;;;;4.00;3.60;;;26.80;99.90;;;;;;5014887;28;20449;-74
2022/08/17 13:46:16;;;;;;;4.13;3.73;;;26.90;99.90;;;;;;5014180;28;20549;-74
2022/08/17 13:48:43;;;;;;;6.30;5.17;;;27.00;99.90;;;;;;5014621;28;20439;-74
2022/08/17 13:51:25;;;;;;;5.47;4.20;;;27.20;99.90;;;;;;5014720;28;20957;-74
2022/08/17 13:54:05;;;;;;;5.40;3.93;;;27.30;99.90;;;;;;5013062;28;20477;-74
2022/08/17 13:56:56;;;;;;;5.63;3.67;;;27.30;99.90;;;;;;5014230;28;20471;-74
2022/08/17 13:59:31;;;;;;;5.93;3.30;;;27.40;99.90;;;;;;5011662;28;20526;-74
2022/08/17 14:01:59;;;;;;;9.27;6.80;;;27.50;99.90;;;;;;5014431;28;20458;-74
2022/08/17 14:04:30;;;;;;;3.83;3.43;;;27.60;99.90;;;;;;5014027;28;20479;-74
2022/08/17 14:07:01;;;;;;;3.60;3.30;;;27.70;99.90;;;;;;5014692;28;20458;-74
2022/08/17 14:09:31;;;;;;;8.60;3.40;;;27.90;99.90;;;;;;5014115;28;21018;-74
2022/08/17 14:11:59;;;;;;;3.33;3.00;;;27.90;99.90;;;;;;5014058;28;20948;-74
2022/08/17 14:14:28;;;;;;;5.33;3.50;;;28.00;99.90;;;;;;5013753;28;20482;-74
2022/08/17 14:16:56;;;;;;;3.87;3.57;;;28.10;99.90;;;;;;5014422;28;20491;-74
2022/08/17 14:19:24;;;;;;;5.43;3.53;;;28.20;99.90;;;;;;5014061;28;20493;-74
2022/08/17 14:21:59;;;;;;;7.73;3.50;;;28.30;99.90;;;;;;5013990;28;20455;-74
2022/08/17 14:24:30;;;;;;;5.83;3.40;;;28.30;99.90;;;;;;5013987;28;20478;-74
2022/08/17 14:26:58;;;;;;;4.47;3.60;;;28.40;99.90;;;;;;5014009;28;20453;-74
2022/08/17 14:29:27;;;;;;;3.87;3.20;;;28.50;99.90;;;;;;5014071;28;20451;-74
2022/08/17 14:31:55;;;;;;;5.43;3.90;;;28.60;99.90;;;;;;5013702;28;20935;-74
2022/08/17 14:34:23;;;;;;;4.33;3.30;;;28.70;99.90;;;;;;5013107;28;20474;-74
2022/08/17 14:36:51;;;;;;;6.50;3.00;;;28.80;99.90;;;;;;5013842;28;20493;-74
2022/08/17 14:39:18;;;;;;;4.00;3.60;;;28.80;99.90;;;;;;5013894;28;20459;-74
2022/08/17 14:41:46;;;;;;;3.60;3.30;;;28.80;99.90;;;;;;5013862;28;20455;-74
2022/08/17 14:44:14;;;;;;;4.73;3.23;;;28.90;99.90;;;;;;5013551;28;20475;-74
2022/08/17 14:46:41;;;;;;;5.63;3.70;;;29.10;99.90;;;;;;5013210;28;20454;-74
2022/08/17 14:49:09;;;;;;;5.80;3.40;;;29.30;99.90;;;;;;5013742;28;20458;-74
2022/08/17 14:51:37;;;;;;;4.07;3.10;;;29.20;99.90;;;;;;5013602;28;20463;-74
2022/08/17 14:54:04;;;;;;;4.27;3.40;;;29.20;99.90;;;;;;5013085;28;21029;-74
2022/08/17 14:56:31;;;;;;;6.93;3.10;;;29.20;99.90;;;;;;5013182;28;20498;-74
2022/08/17 14:58:59;;;;;;;5.70;3.80;;;29.30;99.90;;;;;;5013324;28;20454;-74
2022/08/17 15:01:26;;;;;;;5.23;3.20;;;29.30;99.90;;;;;;5013048;28;20954;-74
2022/08/17 15:03:53;;;;;;;4.20;3.73;;;29.30;99.90;;;;;;5012852;28;20852;-74
2022/08/17 15:06:21;;;;;;;6.60;3.70;;;29.30;99.90;;;;;;5013051;28;20458;-74
2022/08/17 15:08:48;;;;;;;7.87;3.73;;;29.30;99.90;;;;;;5013384;28;20461;-74
2022/08/17 15:11:15;;;;;;;5.50;3.50;;;29.30;99.90;;;;;;5013085;28;20450;-74
2022/08/17 15:13:42;;;;;;;9.67;4.60;;;29.30;99.90;;;;;;5012956;28;20459;-74
2022/08/17 15:16:12;;;;;;;9.53;3.93;;;29.30;99.90;;;;;;5012967;28;20530;-74
2022/08/17 15:18:39;;;;;;;8.77;3.93;;;29.30;99.90;;;;;;5013432;28;20442;-74
2022/08/17 15:21:09;;;;;;;17.77;4.27;;;29.30;99.90;;;;;;5012874;28;20455;-74
2022/08/17 15:23:36;;;;;;;8.33;4.27;;;29.30;99.90;;;;;;5013025;28;20446;-74
2022/08/17 15:26:03;;;;;;;8.93;3.47;;;29.20;99.90;;;;;;5012993;28;20458;-74
2022/08/17 15:28:29;;;;;;;14.93;3.47;;;29.20;99.90;;;;;;5013025;28;20483;-74
2022/08/17 15:30:56;;;;;;;7.43;3.70;;;29.10;99.90;;;;;;5013025;28;20454;-74
2022/08/17 15:33:29;;;;;;;7.93;3.30;;;29.20;99.90;;;;;;5012536;28;20965;-74
2022/08/17 15:35:57;;;;;;;15.23;3.97;;;29.20;99.90;;;;;;5012489;28;20846;-74
2022/08/17 15:38:25;;;;;;;14.10;3.87;;;29.20;99.90;;;;;;5012711;28;20495;-74
2022/08/17 15:40:52;;;;;;;5.53;3.60;;;29.20;99.90;;;;;;5012404;28;20467;-74
2022/08/17 15:43:23;;;;;;;11.27;4.27;;;29.30;99.90;;;;;;5012258;28;20824;-74
2022/08/17 15:45:58;;;;;;;11.97;3.57;;;29.30;99.90;;;;;;5012285;28;20471;-74
2022/08/17 15:48:39;;;;;;;7.27;3.50;;;29.30;99.90;;;;;;5012923;28;20446;-74
2022/08/17 15:51:07;;;;;;;4.17;3.17;;;29.30;99.90;;;;;;5012600;28;20543;-74
2022/08/17 15:53:34;;;;;;;10.13;3.87;;;29.40;99.90;;;;;;5012450;28;20455;-74
2022/08/17 15:56:02;;;;;;;5.00;3.67;;;29.50;99.90;;;;;;5012392;28;20461;-74
2022/08/17 15:58:29;;;;;;;4.87;3.70;;;29.50;99.90;;;;;;5012061;28;21028;-74
2022/08/17 16:00:56;;;;;;;7.40;3.50;;;29.60;99.90;;;;;;5012404;28;20533;-74
2022/08/17 16:03:22;;;;;;;4.03;3.50;;;29.60;99.90;;;;;;5012167;28;20454;-74
2022/08/17 16:05:51;;;;;;;6.10;3.73;;;29.60;99.90;;;;;;5011879;28;20478;-74
2022/08/17 16:08:18;;;;;;;6.00;3.70;;;29.50;99.90;;;;;;5012562;28;20850;-74
2022/08/17 16:10:45;;;;;;;3.80;3.50;;;29.50;99.90;;;;;;5012418;28;20457;-74
2022/08/17 16:13:12;;;;;;;6.67;4.67;;;29.30;99.90;;;;;;5012230;28;20546;-74
2022/08/17 16:15:39;;;;;;;4.70;3.90;;;29.20;99.90;;;;;;5011532;28;20942;-75
2022/08/17 16:18:06;;;;;;;6.33;3.83;;;29.10;99.90;;;;;;5012167;28;20491;-74
2022/08/17 16:20:33;;;;;;;5.00;3.70;;;29.10;99.90;;;;;;5011952;28;20849;-74
2022/08/17 16:23:02;;;;;;;6.60;4.30;;;29.10;99.90;;;;;;5012034;28;20450;-74
2022/08/17 16:25:31;;;;;;;5.20;4.17;;;29.00;99.90;;;;;;5011609;28;20525;-74
2022/08/17 16:27:59;;;;;;;6.43;4.17;;;28.90;99.90;;;;;;5012061;28;20814;-74
2022/08/17 16:30:28;;;;;;;5.37;4.40;;;28.80;99.90;;;;;;5011858;28;20962;-74
2022/08/17 16:32:58;;;;;;;5.20;3.77;;;28.70;99.90;;;;;;5012093;28;20459;-74
2022/08/17 16:35:26;;;;;;;4.53;4.07;;;28.60;99.90;;;;;;5011988;28;20470;-74
2022/08/17 16:37:54;;;;;;;7.43;4.60;;;28.50;99.90;;;;;;5011845;28;20497;-74
2022/08/17 16:40:25;;;;;;;7.53;4.10;;;28.40;99.90;;;;;;5011920;28;20455;-74
2022/08/17 16:42:52;;;;;;;4.70;3.43;;;28.40;99.90;;;;;;5011830;28;20505;-75
2022/08/17 16:45:21;;;;;;;5.03;4.03;;;28.30;99.90;;;;;;5011243;28;21015;-75
2022/08/17 16:47:49;;;;;;;6.13;4.27;;;28.30;99.90;;;;;;5011875;28;20529;-75
2022/08/17 16:50:20;;;;;;;5.07;4.10;;;28.30;99.90;;;;;;5011871;28;20458;-75
2022/08/17 16:52:48;;;;;;;6.40;4.63;;;28.20;99.90;;;;;;5011556;28;20443;-75
2022/08/17 16:55:17;;;;;;;5.13;4.60;;;28.20;99.90;;;;;;5011335;28;20532;-75
2022/08/17 16:57:46;;;;;;;5.73;4.13;;;28.20;99.90;;;;;;5011414;28;21022;-75
2022/08/17 17:00:15;;;;;;;4.63;4.00;;;28.10;99.90;;;;;;5011297;28;20973;-75
2022/08/17 17:02:45;;;;;;;4.53;4.13;;;28.10;99.90;;;;;;5011791;28;20465;-75
2022/08/17 17:05:24;;;;;;;5.20;4.27;;;28.10;99.90;;;;;;5011338;28;20563;-75
2022/08/17 17:08:02;;;;;;;4.70;4.30;;;28.10;99.90;;;;;;5011402;28;20514;-75
2022/08/17 17:10:33;;;;;;;6.37;4.07;;;28.00;99.90;;;;;;5011403;28;20819;-75
2022/08/17 17:13:02;;;;;;;6.67;4.23;;;27.90;99.90;;;;;;5011626;28;20452;-75
2022/08/17 17:15:39;;;;;;;4.50;4.10;;;27.90;99.90;;;;;;5011047;28;20498;-75
2022/08/17 17:18:11;;;;;;;6.67;4.73;;;27.90;99.90;;;;;;5011567;28;20470;-75
2022/08/17 17:20:45;;;;;;;5.27;4.50;;;27.90;99.90;;;;;;5011357;28;20958;-75
2022/08/17 17:23:33;;;;;;;6.27;4.70;;;27.90;99.90;;;;;;5011564;28;20493;-75
2022/08/17 17:26:15;;;;;;;5.10;4.30;;;27.90;99.90;;;;;;5011271;28;20465;-75
2022/08/17 17:28:55;;;;;;;6.23;4.20;;;27.90;99.90;;;;;;5014775;28;20537;-75
2022/08/17 17:31:26;;;;;;;5.70;4.63;;;27.90;99.90;;;;;;5014859;28;20443;-75
2022/08/17 17:33:57;;;;;;;7.23;4.90;;;27.80;99.90;;;;;;5014698;28;20980;-74